Sunday, December 17, 2017, 2:34 PM EST
Back to Local

KUCP, New Castle, New Castle Municipal Airport

Location: Edinburg, PA, United States Lat: 41.025
Local Time: 2:34 PM EST (19:34 GMT) Lon: -80.413
Time Zone: US/Eastern Elev: 1072 ft

Show me the last for .
Show Decoded

2017-12-17 13:56 METAR KUCP 171856Z AUTO 17004KT 10SM CLR 04/M02 A3011 RMK AO2 SLP225 T00391017 =
2017-12-17 12:56 METAR KUCP 171756Z AUTO 00000KT 10SM CLR 02/M02 A3015 RMK AO2 SLP238 T00171017
                 10022 21067 58021 =
2017-12-17 11:56 METAR KUCP 171656Z AUTO 00000KT 7SM CLR 01/M01 A3017 RMK AO2 SLP246 T00061011 =
2017-12-17 10:56 METAR KUCP 171556Z AUTO 00000KT 5SM BR CLR M02/M02 A3021 RMK AO2 SLP258
                 T10171022 =
2017-12-17 09:56 METAR KUCP 171456Z AUTO 00000KT 5SM BR CLR M03/M04 A3021 RMK AO2 SLP261
                 T10331039 53006 =
2017-12-17 08:56 METAR KUCP 171356Z AUTO 00000KT 4SM BR CLR M05/M06 A3020 RMK AO2 SLP257
                 T10501056 =
2017-12-17 07:56 METAR KUCP 171256Z AUTO 00000KT 4SM BR CLR M06/M07 A3019 RMK AO2 SLP254
                 T10611067 =
2017-12-17 06:56 METAR KUCP 171156Z AUTO 00000KT 4SM BR CLR M07/M08 A3019 RMK AO2 SLP254 70003
                 T10671078 11056 21072 51009 =
2017-12-17 05:56 METAR KUCP 171056Z AUTO 00000KT 4SM BR CLR M07/M08 A3018 RMK AO2 SLP252
                 T10671078 =
2017-12-17 04:56 METAR KUCP 170956Z AUTO 00000KT 5SM BR CLR M07/M08 A3017 RMK AO2 SLP244
                 T10671078 =
2017-12-17 03:56 METAR KUCP 170856Z AUTO 00000KT 5SM BR CLR M06/M07 A3016 RMK AO2 SLP242
                 T10611072 51004 =
2017-12-17 02:56 METAR KUCP 170756Z AUTO 00000KT 5SM BR CLR M06/M06 A3016 RMK AO2 SLP242
                 T10561061 =
2017-12-17 01:56 METAR KUCP 170656Z AUTO 00000KT 4SM BR CLR M07/M08 A3016 RMK AO2 SLP241
                 T10671078 =
2017-12-17 00:56 METAR KUCP 170556Z AUTO 00000KT 3SM BR CLR M06/M07 A3015 RMK AO2 SLP238
                 T10611072 10000 21061 51007 =
2017-12-16 23:56 METAR KUCP 170456Z AUTO 00000KT 5SM BR CLR M05/M06 A3014 RMK AO2 SLP235
                 T10501061 400441056 =
2017-12-16 22:56 METAR KUCP 170356Z AUTO 00000KT 8SM CLR M04/M06 A3014 RMK AO2 SLP233 T10441056 =
2017-12-16 21:56 METAR KUCP 170256Z AUTO 00000KT 9SM CLR M04/M06 A3013 RMK AO2 SLP231 T10441056
                 51012 =
2017-12-16 20:56 METAR KUCP 170156Z AUTO 07005KT 10SM CLR M03/M04 A3011 RMK AO2 SLP226 T10331044
                 =
2017-12-16 19:56 METAR KUCP 170056Z AUTO 00000KT 10SM CLR M03/M03 A3011 RMK AO2 SLP224 T10281033
                 =
2017-12-16 18:56 METAR KUCP 162356Z AUTO 00000KT 10SM CLR M01/M03 A3009 RMK AO2 SLP217 T10061028
                 10044 21006 51022 =
2017-12-16 17:56 METAR KUCP 162256Z AUTO 22003KT 10SM CLR 01/M03 A3007 RMK AO2 SLP210 T00061028 =
2017-12-16 16:56 METAR KUCP 162156Z AUTO 25004KT 10SM SCT100 BKN120 04/M03 A3005 RMK AO2 SLP200
                 T00391028 =
2017-12-16 15:56 METAR KUCP 162056Z AUTO 23004KT 10SM OVC095 04/M03 A3002 RMK AO2 SLP192
                 T00441028 53007 =
2017-12-16 14:56 METAR KUCP 161956Z AUTO 23006KT 10SM OVC095 04/M03 A3001 RMK AO2 SLP187
                 T00391028 =

Support USWX by starting your Amazon purchase here.